Map

Track Data

SID SEASON NUMBER BASIN SUBBASIN NAME ISO_TIME NATURE LAT LON WMO_WIND WMO_PRES WMO_AGENCY TRACK_TYPE DIST2LAND LANDFALL IFLAG USA_AGENCY USA_ATCF_ID USA_LAT USA_LON USA_RECORD USA_STATUS USA_WIND USA_PRES USA_SSHS USA_R34_NE USA_R34_SE USA_R34_SW USA_R34_NW USA_R50_NE USA_R50_SE USA_R50_SW USA_R50_NW USA_R64_NE USA_R64_SE USA_R64_SW USA_R64_NW USA_POCI USA_ROCI USA_RMW USA_EYE TOKYO_LAT TOKYO_LON TOKYO_GRADE TOKYO_WIND TOKYO_PRES TOKYO_R50_DIR TOKYO_R50_LONG TOKYO_R50_SHORT TOKYO_R30_DIR TOKYO_R30_LONG TOKYO_R30_SHORT TOKYO_LAND CMA_LAT CMA_LON CMA_CAT CMA_WIND CMA_PRES HKO_LAT HKO_LON HKO_CAT HKO_WIND HKO_PRES NEWDELHI_LAT NEWDELHI_LON NEWDELHI_GRADE NEWDELHI_WIND NEWDELHI_PRES NEWDELHI_CI NEWDELHI_DP NEWDELHI_POCI REUNION_LAT REUNION_LON REUNION_TYPE REUNION_WIND REUNION_PRES REUNION_TNUM REUNION_CI REUNION_RMW REUNION_R34_NE REUNION_R34_SE REUNION_R34_SW REUNION_R34_NW REUNION_R50_NE REUNION_R50_SE REUNION_R50_SW REUNION_R50_NW REUNION_R64_NE REUNION_R64_SE REUNION_R64_SW REUNION_R64_NW BOM_LAT BOM_LON BOM_TYPE BOM_WIND BOM_PRES BOM_TNUM BOM_CI BOM_RMW BOM_R34_NE BOM_R34_SE BOM_R34_SW BOM_R34_NW BOM_R50_NE BOM_R50_SE BOM_R50_SW BOM_R50_NW BOM_R64_NE BOM_R64_SE BOM_R64_SW BOM_R64_NW BOM_ROCI BOM_POCI BOM_EYE BOM_POS_METHOD BOM_PRES_METHOD NADI_LAT NADI_LON NADI_CAT NADI_WIND NADI_PRES WELLINGTON_LAT WELLINGTON_LON WELLINGTON_WIND WELLINGTON_PRES DS824_LAT DS824_LON DS824_STAGE DS824_WIND DS824_PRES TD9636_LAT TD9636_LON TD9636_STAGE TD9636_WIND TD9636_PRES TD9635_LAT TD9635_LON TD9635_WIND TD9635_PRES TD9635_ROCI NEUMANN_LAT NEUMANN_LON NEUMANN_CLASS NEUMANN_WIND NEUMANN_PRES MLC_LAT MLC_LON MLC_CLASS MLC_WIND MLC_PRES USA_GUST BOM_GUST BOM_GUST_PER REUNION_GUST REUNION_GUST_PER USA_SEAHGT USA_SEARAD_NE USA_SEARAD_SE USA_SEARAD_SW USA_SEARAD_NW STORM_SPEED STORM_DIR
1994229N11321 1994 69 NA NA CHRIS 1994-08-16 12:00:00 TS 11.3000 -39.4000 30 1010 hurdat_atl main 1527 1496 O_____________ hurdat_atl AL041994 11.3000 -39.4000 TD 30 1010 -1 9 283
1994229N11321 1994 69 NA NA CHRIS 1994-08-16 15:00:00 TS 11.4052 -39.8524 main 1486 1455 P_____________ AL041994 11.4052 -39.8524 TD 30 1009 -1 9 283
1994229N11321 1994 69 NA NA CHRIS 1994-08-16 18:00:00 TS 11.5000 -40.3000 30 1008 hurdat_atl main 1455 1425 O_____________ hurdat_atl AL041994 11.5000 -40.3000 TD 30 1008 -1 9 282
1994229N11321 1994 69 NA NA CHRIS 1994-08-16 21:00:00 TS 11.5849 -40.7426 main 1425 1387 P_____________ AL041994 11.5849 -40.7426 TD 32 1007 -1 9 283
1994229N11321 1994 69 NA NA CHRIS 1994-08-17 00:00:00 TS 11.7000 -41.2000 35 1006 hurdat_atl main 1387 1357 O_____________ hurdat_atl AL041994 11.7000 -41.2000 TS 35 1006 0 10 288
1994229N11321 1994 69 NA NA CHRIS 1994-08-17 03:00:00 TS 11.8774 -41.6851 main 1357 1329 P_____________ AL041994 11.8774 -41.6851 TS 37 1004 0 11 292
1994229N11321 1994 69 NA NA CHRIS 1994-08-17 06:00:00 TS 12.1000 -42.2000 40 1003 hurdat_atl main 1329 1303 O_____________ hurdat_atl AL041994 12.1000 -42.2000 TS 40 1003 0 11 294
1994229N11321 1994 69 NA NA CHRIS 1994-08-17 09:00:00 TS 12.3274 -42.7352 main 1303 1279 P_____________ AL041994 12.3274 -42.7352 TS 45 1001 0 12 295
1994229N11321 1994 69 NA NA CHRIS 1994-08-17 12:00:00 TS 12.6000 -43.3000 50 1000 hurdat_atl main 1280 1260 O_____________ hurdat_atl AL041994 12.6000 -43.3000 TS 50 1000 0 13 298
1994229N11321 1994 69 NA NA CHRIS 1994-08-17 15:00:00 TS 12.9425 -43.9000 main 1260 1252 P_____________ AL041994 12.9425 -43.9000 TS 55 997 0 14 301
1994229N11321 1994 69 NA NA CHRIS 1994-08-17 18:00:00 TS 13.3000 -44.5000 60 994 hurdat_atl main 1254 1247 O_____________ hurdat_atl AL041994 13.3000 -44.5000 TS 60 994 0 13 301
1994229N11321 1994 69 NA NA CHRIS 1994-08-17 21:00:00 TS 13.6073 -45.0502 main 1244 1238 P_____________ AL041994 13.6073 -45.0502 TS 60 991 0 12 299
1994229N11321 1994 69 NA NA CHRIS 1994-08-18 00:00:00 TS 13.9000 -45.6000 60 988 hurdat_atl main 1240 1225 O_____________ hurdat_atl AL041994 13.9000 -45.6000 TS 60 988 0 13 298
1994229N11321 1994 69 NA NA CHRIS 1994-08-18 03:00:00 TS 14.1924 -46.1927 main 1228 1216 P_____________ AL041994 14.1924 -46.1927 TS 62 987 0 13 297
1994229N11321 1994 69 NA NA CHRIS 1994-08-18 06:00:00 TS 14.5000 -46.8000 65 987 hurdat_atl main 1220 1212 O_____________ hurdat_atl AL041994 14.5000 -46.8000 HU 65 987 1 13 299
1994229N11321 1994 69 NA NA CHRIS 1994-08-18 09:00:00 TS 14.8348 -47.3927 main 1216 1216 P_____________ AL041994 14.8348 -47.3927 HU 65 987 1 14 301
1994229N11321 1994 69 NA NA CHRIS 1994-08-18 12:00:00 TS 15.2000 -48.0000 65 987 hurdat_atl main 1226 1222 O_____________ hurdat_atl AL041994 15.2000 -48.0000 HU 65 987 1 14 302
1994229N11321 1994 69 NA NA CHRIS 1994-08-18 15:00:00 TS 15.5774 -48.6428 main 1241 1233 P_____________ AL041994 15.5774 -48.6428 HU 65 987 1 15 303
1994229N11321 1994 69 NA NA CHRIS 1994-08-18 18:00:00 TS 16.0000 -49.3000 65 987 hurdat_atl main 1251 1251 O_____________ hurdat_atl AL041994 16.0000 -49.3000 HU 65 987 1 16 306
1994229N11321 1994 69 NA NA CHRIS 1994-08-18 21:00:00 TS 16.4848 -49.9502 main 1272 1272 P_____________ AL041994 16.4848 -49.9502 HU 67 986 1 16 309
1994229N11321 1994 69 NA NA CHRIS 1994-08-19 00:00:00 TS 17.0000 -50.6000 70 985 hurdat_atl main 1303 1295 O_____________ hurdat_atl AL041994 17.0000 -50.6000 HU 70 985 1 16 309
1994229N11321 1994 69 NA NA CHRIS 1994-08-19 03:00:00 TS 17.4998 -51.2504 main 1293 1275 P_____________ AL041994 17.4998 -51.2504 HU 70 982 1 16 309
1994229N11321 1994 69 NA NA CHRIS 1994-08-19 06:00:00 TS 18.0000 -51.9000 70 979 hurdat_atl main 1275 1256 O_____________ hurdat_atl AL041994 18.0000 -51.9000 HU 70 979 1 16 309
1994229N11321 1994 69 NA NA CHRIS 1994-08-19 09:00:00 TS 18.4924 -52.5579 main 1256 1249 P_____________ AL041994 18.4924 -52.5579 HU 70 979 1 16 309
1994229N11321 1994 69 NA NA CHRIS 1994-08-19 12:00:00 TS 19.0000 -53.2000 70 979 hurdat_atl main 1251 1245 O_____________ hurdat_atl AL041994 19.0000 -53.2000 HU 70 979 1 16 311
1994229N11321 1994 69 NA NA CHRIS 1994-08-19 15:00:00 TS 19.5347 -53.8080 main 1246 1190 P_____________ AL041994 19.5347 -53.8080 HU 70 979 1 16 314
1994229N11321 1994 69 NA NA CHRIS 1994-08-19 18:00:00 TS 20.1000 -54.4000 70 980 hurdat_atl main 1190 1139 O_____________ hurdat_atl AL041994 20.1000 -54.4000 HU 70 980 1 16 316
1994229N11321 1994 69 NA NA CHRIS 1994-08-19 21:00:00 TS 20.6848 -55.0005 main 1139 1094 P_____________ AL041994 20.6848 -55.0005 HU 67 982 1 16 317
1994229N11321 1994 69 NA NA CHRIS 1994-08-20 00:00:00 TS 21.3000 -55.6000 65 984 hurdat_atl main 1094 1056 O_____________ hurdat_atl AL041994 21.3000 -55.6000 HU 65 984 1 17 319
1994229N11321 1994 69 NA NA CHRIS 1994-08-20 03:00:00 TS 21.9496 -56.1856 main 1056 1029 P_____________ AL041994 21.9496 -56.1856 HU 62 989 0 17 319
1994229N11321 1994 69 NA NA CHRIS 1994-08-20 06:00:00 TS 22.6000 -56.8000 60 995 hurdat_atl main 1029 1001 O_____________ hurdat_atl AL041994 22.6000 -56.8000 TS 60 995 0 17 317
1994229N11321 1994 69 NA NA CHRIS 1994-08-20 09:00:00 TS 23.2148 -57.4780 main 998 976 P_____________ AL041994 23.2148 -57.4780 TS 55 1002 0 18 313
1994229N11321 1994 69 NA NA CHRIS 1994-08-20 12:00:00 TS 23.8000 -58.2000 50 1009 hurdat_atl main 976 956 O_____________ hurdat_atl AL041994 23.8000 -58.2000 TS 50 1009 0 18 310
1994229N11321 1994 69 NA NA CHRIS 1994-08-20 15:00:00 TS 24.3499 -58.9581 main 949 945 P_____________ AL041994 24.3499 -58.9581 TS 47 1009 0 18 309
1994229N11321 1994 69 NA NA CHRIS 1994-08-20 18:00:00 TS 24.9000 -59.7000 45 1010 hurdat_atl main 948 943 O_____________ hurdat_atl AL041994 24.9000 -59.7000 TS 45 1010 0 17 312
1994229N11321 1994 69 NA NA CHRIS 1994-08-20 21:00:00 TS 25.4920 -60.3657 main 957 957 P_____________ AL041994 25.4920 -60.3657 TS 42 1010 0 17 316
1994229N11321 1994 69 NA NA CHRIS 1994-08-21 00:00:00 TS 26.1000 -61.0000 40 1011 hurdat_atl main 982 982 O_____________ hurdat_atl AL041994 26.1000 -61.0000 TS 40 1011 0 17 315
1994229N11321 1994 69 NA NA CHRIS 1994-08-21 03:00:00 TS 26.6851 -61.6878 main 1010 1010 P_____________ AL041994 26.6851 -61.6878 TS 37 1011 0 17 316
1994229N11321 1994 69 NA NA CHRIS 1994-08-21 06:00:00 TS 27.3000 -62.3000 35 1012 hurdat_atl main 1050 1050 O_____________ hurdat_atl AL041994 27.3000 -62.3000 TS 35 1012 0 16 322
1994229N11321 1994 69 NA NA CHRIS 1994-08-21 09:00:00 TS 27.9623 -62.7973 main 1110 1110 P_____________ AL041994 27.9623 -62.7973 TS 35 1012 0 16 333
1994229N11321 1994 69 NA NA CHRIS 1994-08-21 12:00:00 TS 28.7000 -63.1000 35 1013 hurdat_atl main 1178 1178 O_____________ hurdat_atl AL041994 28.7000 -63.1000 TS 35 1013 0 16 348
1994229N11321 1994 69 NA NA CHRIS 1994-08-21 15:00:00 TS 29.5198 -63.1831 main 1264 1264 P_____________ AL041994 29.5198 -63.1831 TS 35 1013 0 17 0
1994229N11321 1994 69 NA NA CHRIS 1994-08-21 18:00:00 TS 30.4000 -63.1000 35 1013 hurdat_atl main 1299 1258 O_____________ hurdat_atl AL041994 30.4000 -63.1000 TS 35 1013 0 18 6
1994229N11321 1994 69 NA NA CHRIS 1994-08-21 21:00:00 TS 31.3076 -62.9510 main 1258 1234 P_____________ AL041994 31.3076 -62.9510 TS 35 1012 0 18 8
1994229N11321 1994 69 NA NA CHRIS 1994-08-22 00:00:00 TS 32.2000 -62.8000 35 1012 hurdat_atl main 1234 1157 O_____________ hurdat_atl AL041994 32.2000 -62.8000 TS 35 1012 0 18 5
1994229N11321 1994 69 NA NA CHRIS 1994-08-22 03:00:00 TS 33.0449 -62.7622 main 1157 1081 P_____________ AL041994 33.0449 -62.7622 TS 35 1010 0 16 0
1994229N11321 1994 69 NA NA CHRIS 1994-08-22 06:00:00 TS 33.8000 -62.8000 35 1008 hurdat_atl main 1081 1021 O_____________ hurdat_atl AL041994 33.8000 -62.8000 TS 35 1008 0 14 354
1994229N11321 1994 69 NA NA CHRIS 1994-08-22 09:00:00 TS 34.4299 -62.9509 main 1016 962 P_____________ AL041994 34.4299 -62.9509 TS 35 1007 0 12 352
1994229N11321 1994 69 NA NA CHRIS 1994-08-22 12:00:00 TS 35.0000 -63.0000 35 1006 hurdat_atl main 962 915 O_____________ hurdat_atl AL041994 35.0000 -63.0000 TS 35 1006 0 11 7
1994229N11321 1994 69 NA NA CHRIS 1994-08-22 15:00:00 TS 35.5619 -62.7834 main 904 851 P_____________ AL041994 35.5619 -62.7834 TS 37 1005 0 13 25
1994229N11321 1994 69 NA NA CHRIS 1994-08-22 18:00:00 TS 36.2000 -62.3000 40 1004 hurdat_atl main 851 795 O_____________ hurdat_atl AL041994 36.2000 -62.3000 TS 40 1004 0 17 33
1994229N11321 1994 69 NA NA CHRIS 1994-08-22 21:00:00 TS 36.9894 -61.6181 main 787 738 P_____________ AL041994 36.9894 -61.6181 TS 40 1003 0 21 37
1994229N11321 1994 69 NA NA CHRIS 1994-08-23 00:00:00 TS 37.9000 -60.7000 40 1003 hurdat_atl main 732 699 O_____________ hurdat_atl AL041994 37.9000 -60.7000 TS 40 1003 0 24 40
1994229N11321 1994 69 NA NA CHRIS 1994-08-23 03:00:00 TS 38.8540 -59.6437 main 695 636 P_____________ AL041994 38.8540 -59.6437 TS 40 1003 0 27 42
1994229N11321 1994 69 NA NA CHRIS 1994-08-23 06:00:00 TS 39.9000 -58.4000 40 1003 hurdat_atl main 629 572 O_____________ hurdat_atl AL041994 39.9000 -58.4000 TS 40 1003 0 29 43
1994229N11321 1994 69 NA NA CHRIS 1994-08-23 09:00:00 TS 41.0107 -57.0345 main 572 522 P_____________ AL041994 41.0107 -57.0345 TS 42 1003 0 32 44
1994229N11321 1994 69 NA NA CHRIS 1994-08-23 12:00:00 TS 42.2000 -55.5000 45 1003 hurdat_atl main 511 356 O_____________ hurdat_atl AL041994 42.2000 -55.5000 TS 45 1003 0 34 44
1994229N11321 1994 69 NA NA CHRIS 1994-08-23 15:00:00 TS 43.4433 -53.8113 main 355 235 P_____________ AL041994 43.4433 -53.8113 TS 45 1003 0 36 45
1994229N11321 1994 69 NA NA CHRIS 1994-08-23 18:00:00 TS 44.7000 -52.0000 45 1003 hurdat_atl main 230 O_____________ hurdat_atl AL041994 44.7000 -52.0000 TS 45 1003 0 36 46

About IBTrACS Database

This database is a web-friendly format of International Best Track Archive for Climate Stewardship (IBTrACS), a global best track data archive curated by NOAA dating back to 1842.

Updated: 2021-12-06